Mud Butte, SD (57758)

8:21 AM MST on February 12, 2016 (GMT -0700)
Faith | | Change Station
CLOSE
Current Station
Airport
Location: Faith,
Elevation: 2582 ft
Nearby Weather Stations

Elev 2582 ft 45.03 °N, 102.02 °W | Updated 25 minutes ago

Mostly Cloudy
Mostly Cloudy
20 °F
Feels Like 8 °F
N
12
Wind Variable Wind from NNE
Gusts mph

Today
High -- | Low -- °F
--% Chance of Precip.
Yesterday
High -- | Low -- °F
Precip. -- in
Pressure 30.57 in
Visibility -9999.0 miles
Clouds
Windchill 8 °F
Dew Point 13 °F
Humidity 74%
Rainfall 0.00 in
Snow Depth Not available.
6:57 AM 5:14 PM
Waxing Crescent, 21% visible
METAR KD07 121456Z AUTO 03010KT M07/M11 A3044 RMK AO1 SLP351 T10671106 53025
Pressure 30.57 in
Visibility -9999.0 miles
Clouds
Windchill 8 °F
Dew Point 13 °F
Humidity 74%
Rainfall 0.00 in
Snow Depth Not available.
6:57 AM 5:14 PM
Waxing Crescent, 21% visible
METAR KD07 121456Z AUTO 03010KT M07/M11 A3044 RMK AO1 SLP351 T10671106 53025

10-Day Weather Forecast

Almanac

Astronomy

Feb. 12, 2016 Rise Set
Actual Time
Civil Twilight
Nautical Twilight
Astronomical Twilight
Moon
Length of Visible Light
Length of Day
Tomorrow will be .
, % of the Moon is Illuminated

Today's Extremes

State Highs State Lows

Community

WunderPhotos

Upload Photos

1,892,329 photos uploaded!

WunderBlog® & News

Nearby

Air Quality

  Air Quality AQ Index Pollutant
Not available.

Snow Depth

Station Depth Elevation

Earthquake Activity

City Distance Mag. Time & Date
Minimum magnitude displayed is 2.5.

Coastal Water Temperatures

Place Temperature

Stations

Nearby Weather Stations

Station Location Temp. Windchill Dew Point Humidity Wind Precip. Elev Updated Type
                   

Watches & Warnings

There are currently no watches in effect.